Time;durP1;ratioP1;P1;durP2;ratioP2;P2;SDS_P1;SDS_P2;PMS_P1;PMS_P2;Temp;Humidity;BMP_temperature;BMP_pressure;BME280_temperature;BME280_humidity;BME280_pressure;Samples;Min_cycle;Max_cycle;Signal;HPM_P1;HPM_P2
2023/01/21 00:00:31;;;;;;;12.70;8.00;;;;;;;;;;5057491;28;20214;-35
2023/01/21 00:02:59;;;;;;;12.00;7.37;;;;;;;;;;5056114;28;20237;-30
2023/01/21 00:05:26;;;;;;;12.57;7.97;;;;;;;;;;5058587;28;20230;-32
2023/01/21 00:07:53;;;;;;;13.23;7.90;;;;;;;;;;5054756;28;20538;-29
2023/01/21 00:10:20;;;;;;;13.87;7.80;;;;;;;;;;5060899;28;20210;-30
2023/01/21 00:12:48;;;;;;;11.30;6.97;;;;;;;;;;5055829;28;20229;-30
2023/01/21 00:15:17;;;;;;;12.00;7.67;;;;;;;;;;5060146;28;20643;-33
2023/01/21 00:17:45;;;;;;;14.63;7.77;;;;;;;;;;5066363;28;20206;-37
2023/01/21 00:20:13;;;;;;;10.93;7.37;;;;;;;;;;5061888;28;20663;-30
2023/01/21 00:22:40;;;;;;;12.63;7.47;;;;;;;;;;5054734;28;20584;-33
2023/01/21 00:25:08;;;;;;;11.03;6.73;;;;;;;;;;5061339;28;20221;-32
2023/01/21 00:27:35;;;;;;;8.77;6.67;;;;;;;;;;5062479;28;20213;-37
2023/01/21 00:30:02;;;;;;;10.50;6.53;;;;;;;;;;5052955;28;20202;-35
2023/01/21 00:32:39;;;;;;;10.67;6.83;;;;;;;;;;5062016;28;20202;-35
2023/01/21 00:35:07;;;;;;;14.80;7.47;;;;;;;;;;5064302;28;20202;-30
2023/01/21 00:37:36;;;;;;;11.57;6.57;;;;;;;;;;5060792;28;20209;-35
2023/01/21 00:40:04;;;;;;;11.00;7.37;;;;;;;;;;5054717;28;20209;-29
2023/01/21 00:42:31;;;;;;;9.90;6.63;;;;;;;;;;5065231;28;20205;-30
2023/01/21 00:44:58;;;;;;;10.50;6.50;;;;;;;;;;5062293;28;20742;-32
2023/01/21 00:47:26;;;;;;;9.63;7.03;;;;;;;;;;5062178;28;20263;-35
2023/01/21 00:49:53;;;;;;;8.03;6.37;;;;;;;;;;5058763;28;20210;-33
2023/01/21 00:52:20;;;;;;;8.40;6.27;;;;;;;;;;5063725;28;20201;-30
2023/01/21 00:54:48;;;;;;;11.00;6.93;;;;;;;;;;5063488;28;20217;-29
2023/01/21 00:57:15;;;;;;;9.80;6.13;;;;;;;;;;5058604;28;20201;-30
2023/01/21 00:59:42;;;;;;;9.93;5.57;;;;;;;;;;5055706;28;20229;-31
2023/01/21 01:02:09;;;;;;;10.73;7.33;;;;;;;;;;5060579;28;20208;-33
2023/01/21 01:04:37;;;;;;;12.67;7.30;;;;;;;;;;5071113;28;20229;-36
2023/01/21 01:07:04;;;;;;;10.00;6.50;;;;;;;;;;5065872;28;20226;-35
2023/01/21 01:09:33;;;;;;;9.83;6.67;;;;;;;;;;5065014;28;20563;-35
2023/01/21 01:12:02;;;;;;;8.23;6.10;;;;;;;;;;5064880;28;20378;-37
2023/01/21 01:14:29;;;;;;;10.90;6.13;;;;;;;;;;5058775;28;20229;-29
2023/01/21 01:16:56;;;;;;;9.83;5.63;;;;;;;;;;5059616;28;20201;-30
2023/01/21 01:19:23;;;;;;;8.53;5.77;;;;;;;;;;5072341;28;20547;-30
2023/01/21 01:21:50;;;;;;;12.30;7.00;;;;;;;;;;5069101;28;20220;-35
2023/01/21 01:24:17;;;;;;;10.50;6.20;;;;;;;;;;5060899;28;20232;-32
2023/01/21 01:26:44;;;;;;;10.00;6.63;;;;;;;;;;5072634;28;20221;-34
2023/01/21 01:29:13;;;;;;;11.30;6.60;;;;;;;;;;5068483;28;20202;-35
2023/01/21 01:31:41;;;;;;;12.20;7.60;;;;;;;;;;5070435;28;20219;-37
2023/01/21 01:34:08;;;;;;;10.37;6.70;;;;;;;;;;5063969;28;20275;-30
2023/01/21 01:36:36;;;;;;;10.43;6.87;;;;;;;;;;5065640;28;20212;-31
2023/01/21 01:39:03;;;;;;;8.60;6.20;;;;;;;;;;5067972;28;20205;-32
2023/01/21 01:41:30;;;;;;;8.57;5.83;;;;;;;;;;5052207;28;20202;-39
2023/01/21 01:43:59;;;;;;;10.10;6.20;;;;;;;;;;5059741;28;20226;-37
2023/01/21 01:46:29;;;;;;;10.47;6.00;;;;;;;;;;5068727;28;20240;-36
2023/01/21 01:48:59;;;;;;;9.03;5.83;;;;;;;;;;5063848;28;20209;-36
2023/01/21 01:51:30;;;;;;;11.00;6.00;;;;;;;;;;5061691;28;20209;-32
2023/01/21 01:53:57;;;;;;;9.20;6.03;;;;;;;;;;5055351;28;20217;-32
2023/01/21 01:56:24;;;;;;;8.03;5.87;;;;;;;;;;5070601;28;20288;-33
2023/01/21 01:58:52;;;;;;;7.17;5.47;;;;;;;;;;5066591;28;20224;-33
2023/01/21 02:01:21;;;;;;;8.00;5.50;;;;;;;;;;5063849;28;20196;-36
2023/01/21 02:03:58;;;;;;;7.93;5.47;;;;;;;;;;5059387;28;20714;-27
2023/01/21 02:06:25;;;;;;;10.50;5.67;;;;;;;;;;5061618;28;20569;-35
2023/01/21 02:08:52;;;;;;;6.37;5.03;;;;;;;;;;5064249;28;20206;-31
2023/01/21 02:11:35;;;;;;;6.57;5.03;;;;;;;;;;5061479;28;20205;-30
2023/01/21 02:14:03;;;;;;;7.40;4.83;;;;;;;;;;5058243;28;20232;-30
2023/01/21 02:16:46;;;;;;;9.37;5.90;;;;;;;;;;5055192;28;20212;-35
2023/01/21 02:19:28;;;;;;;7.50;5.43;;;;;;;;;;5066687;28;20237;-32
2023/01/21 02:21:58;;;;;;;11.63;6.17;;;;;;;;;;5054574;28;20606;-33
2023/01/21 02:24:43;;;;;;;11.50;6.13;;;;;;;;;;5049659;28;20249;-29
2023/01/21 02:27:21;;;;;;;8.03;5.20;;;;;;;;;;5026750;28;20228;-32
2023/01/21 02:30:04;;;;;;;8.30;5.70;;;;;;;;;;5057588;28;20577;-33
2023/01/21 02:32:40;;;;;;;11.53;5.93;;;;;;;;;;5059747;28;20219;-33
2023/01/21 02:35:12;;;;;;;10.73;6.47;;;;;;;;;;5059124;28;20209;-29
2023/01/21 02:37:43;;;;;;;8.27;5.03;;;;;;;;;;5061142;28;20236;-31
2023/01/21 02:40:14;;;;;;;8.30;5.50;;;;;;;;;;5065578;28;20652;-36
2023/01/21 02:42:45;;;;;;;9.43;5.50;;;;;;;;;;5067715;28;20210;-36
2023/01/21 02:45:18;;;;;;;6.87;5.10;;;;;;;;;;5050956;28;20206;-28
2023/01/21 02:47:49;;;;;;;8.37;5.50;;;;;;;;;;5059252;28;20243;-35
2023/01/21 02:50:19;;;;;;;9.67;5.27;;;;;;;;;;5060106;28;20212;-35
2023/01/21 02:52:46;;;;;;;7.10;5.23;;;;;;;;;;5061720;28;20292;-30
2023/01/21 02:55:15;;;;;;;7.33;5.00;;;;;;;;;;5059599;28;20206;-29
2023/01/21 02:57:44;;;;;;;6.53;4.87;;;;;;;;;;5068892;28;20209;-32
2023/01/21 03:00:13;;;;;;;7.97;5.00;;;;;;;;;;5055500;28;20198;-35
2023/01/21 03:02:57;;;;;;;6.27;5.10;;;;;;;;;;5067556;28;20576;-32
2023/01/21 03:05:31;;;;;;;7.70;4.50;;;;;;;;;;5067356;28;20602;-32
2023/01/21 03:08:01;;;;;;;8.20;4.93;;;;;;;;;;5051041;28;20560;-33
2023/01/21 03:10:31;;;;;;;9.90;6.00;;;;;;;;;;5053034;28;20550;-32
2023/01/21 03:13:01;;;;;;;8.93;5.73;;;;;;;;;;5067041;28;20228;-33
2023/01/21 03:18:18;;;;;;;9.43;5.13;;;;;;;;;;5065131;28;20267;-33
2023/01/21 03:20:48;;;;;;;8.80;5.33;;;;;;;;;;5063421;28;20202;-35
2023/01/21 03:23:18;;;;;;;7.00;5.30;;;;;;;;;;5057699;28;20243;-32
2023/01/21 03:25:46;;;;;;;9.63;5.47;;;;;;;;;;5070210;28;20670;-34
2023/01/21 03:28:16;;;;;;;9.17;5.10;;;;;;;;;;5071542;28;20205;-35
2023/01/21 03:30:46;;;;;;;6.43;4.93;;;;;;;;;;5052709;28;20212;-31
2023/01/21 03:33:15;;;;;;;8.33;5.17;;;;;;;;;;5069685;28;20229;-32
2023/01/21 03:35:44;;;;;;;9.90;5.10;;;;;;;;;;5062899;28;20205;-29
2023/01/21 03:38:15;;;;;;;8.33;5.50;;;;;;;;;;5063723;28;20803;-35
2023/01/21 03:40:45;;;;;;;9.23;5.80;;;;;;;;;;5065594;28;20205;-39
2023/01/21 03:43:12;;;;;;;6.33;4.33;;;;;;;;;;5069904;28;20225;-39
2023/01/21 03:45:42;;;;;;;6.57;4.83;;;;;;;;;;5054262;28;20206;-31
2023/01/21 03:48:14;;;;;;;7.00;4.93;;;;;;;;;;5059633;28;20215;-35
2023/01/21 03:50:44;;;;;;;8.73;5.13;;;;;;;;;;5073563;28;20204;-35
2023/01/21 03:53:11;;;;;;;8.73;5.67;;;;;;;;;;5055772;28;20585;-35
2023/01/21 03:55:40;;;;;;;7.97;5.00;;;;;;;;;;5070010;28;20209;-30
2023/01/21 03:58:07;;;;;;;6.80;4.87;;;;;;;;;;5072501;28;20233;-30
2023/01/21 04:00:34;;;;;;;6.70;5.20;;;;;;;;;;5057707;28;20233;-32
2023/01/21 04:03:01;;;;;;;11.50;5.83;;;;;;;;;;5066352;28;20229;-31
2023/01/21 04:05:28;;;;;;;8.10;5.33;;;;;;;;;;5064650;28;20198;-31
2023/01/21 04:07:55;;;;;;;6.27;4.57;;;;;;;;;;5061029;28;20217;-32
2023/01/21 04:10:22;;;;;;;8.03;5.10;;;;;;;;;;5057888;28;20210;-31
2023/01/21 04:12:51;;;;;;;6.93;5.33;;;;;;;;;;5063255;28;20230;-32
2023/01/21 04:15:18;;;;;;;6.03;4.97;;;;;;;;;;5061516;28;20201;-30
2023/01/21 04:17:45;;;;;;;8.00;5.40;;;;;;;;;;5069434;28;20205;-32
2023/01/21 04:20:12;;;;;;;7.60;5.23;;;;;;;;;;5067350;28;20212;-32
2023/01/21 04:22:40;;;;;;;5.57;4.90;;;;;;;;;;5060569;28;20212;-29
2023/01/21 04:25:07;;;;;;;7.93;4.50;;;;;;;;;;5060799;28;20201;-36
2023/01/21 04:27:34;;;;;;;10.03;5.40;;;;;;;;;;5067473;28;20234;-30
2023/01/21 04:30:02;;;;;;;6.73;4.07;;;;;;;;;;5063447;28;20201;-33
2023/01/21 04:32:30;;;;;;;8.17;4.73;;;;;;;;;;5066244;28;20201;-37
2023/01/21 04:34:57;;;;;;;8.67;4.47;;;;;;;;;;5069849;28;20206;-31
2023/01/21 04:37:24;;;;;;;6.37;4.60;;;;;;;;;;5054438;28;20544;-29
2023/01/21 04:39:51;;;;;;;8.63;4.77;;;;;;;;;;5064715;28;20221;-34
2023/01/21 04:42:18;;;;;;;4.77;3.80;;;;;;;;;;5061840;28;20655;-34
2023/01/21 04:44:46;;;;;;;8.13;4.63;;;;;;;;;;5061999;28;20232;-26
2023/01/21 04:47:14;;;;;;;5.00;3.77;;;;;;;;;;5069483;28;20228;-36
2023/01/21 04:49:41;;;;;;;5.87;3.10;;;;;;;;;;5065928;28;20216;-32
2023/01/21 04:52:09;;;;;;;4.30;3.43;;;;;;;;;;5070423;28;20213;-30
2023/01/21 04:54:36;;;;;;;3.63;2.77;;;;;;;;;;5058074;28;20295;-34
2023/01/21 04:57:03;;;;;;;4.27;3.07;;;;;;;;;;5064969;28;20547;-30
2023/01/21 04:59:30;;;;;;;4.80;4.27;;;;;;;;;;5052733;28;20206;-36
2023/01/21 05:01:57;;;;;;;6.40;4.30;;;;;;;;;;5056087;28;20580;-30
2023/01/21 05:04:25;;;;;;;4.90;3.90;;;;;;;;;;5066607;28;20264;-36
2023/01/21 05:06:53;;;;;;;7.93;4.60;;;;;;;;;;5073924;28;20221;-32
2023/01/21 05:09:20;;;;;;;5.33;4.10;;;;;;;;;;5064473;28;20273;-31
2023/01/21 05:11:47;;;;;;;6.50;4.43;;;;;;;;;;5063714;28;20204;-31
2023/01/21 05:14:14;;;;;;;8.47;4.23;;;;;;;;;;5062890;28;20229;-33
2023/01/21 05:16:41;;;;;;;7.13;4.20;;;;;;;;;;5053521;28;20218;-32
2023/01/21 05:19:08;;;;;;;9.40;5.50;;;;;;;;;;5063988;28;20203;-31
2023/01/21 05:21:37;;;;;;;7.23;5.07;;;;;;;;;;5058846;28;20585;-33
2023/01/21 05:24:04;;;;;;;8.17;4.20;;;;;;;;;;5054844;28;20222;-38
2023/01/21 05:26:31;;;;;;;6.13;4.27;;;;;;;;;;5058194;28;20202;-33
2023/01/21 05:28:58;;;;;;;7.33;4.90;;;;;;;;;;5048141;28;20202;-37
2023/01/21 05:31:25;;;;;;;5.87;4.40;;;;;;;;;;5051057;28;20213;-31
2023/01/21 05:33:52;;;;;;;6.93;4.80;;;;;;;;;;5064254;28;20494;-29
2023/01/21 05:36:19;;;;;;;7.03;4.57;;;;;;;;;;5070164;28;20201;-28
2023/01/21 05:38:48;;;;;;;7.20;4.03;;;;;;;;;;5062560;28;20514;-33
2023/01/21 05:41:15;;;;;;;6.73;4.80;;;;;;;;;;5055722;28;20303;-32
2023/01/21 05:43:42;;;;;;;5.50;4.17;;;;;;;;;;5063506;28;20730;-30
2023/01/21 05:46:11;;;;;;;6.93;4.87;;;;;;;;;;5058778;28;20630;-31
2023/01/21 05:48:38;;;;;;;4.50;3.97;;;;;;;;;;5057903;28;20230;-34
2023/01/21 05:51:05;;;;;;;6.47;4.80;;;;;;;;;;5063080;28;20232;-34
2023/01/21 05:53:32;;;;;;;6.33;3.93;;;;;;;;;;5051048;28;20241;-31
2023/01/21 05:56:01;;;;;;;7.23;4.60;;;;;;;;;;5060064;28;20201;-35
2023/01/21 05:58:28;;;;;;;8.77;4.33;;;;;;;;;;5062456;28;20568;-32
2023/01/21 06:00:57;;;;;;;5.83;4.53;;;;;;;;;;5061164;28;20209;-31
2023/01/21 06:03:24;;;;;;;7.40;4.60;;;;;;;;;;5062694;28;20239;-31
2023/01/21 06:05:51;;;;;;;5.47;4.20;;;;;;;;;;5061387;28;20201;-30
2023/01/21 06:08:22;;;;;;;8.90;4.47;;;;;;;;;;5058492;28;20423;-33
2023/01/21 06:10:49;;;;;;;6.77;4.53;;;;;;;;;;5051970;28;20237;-33
2023/01/21 06:13:17;;;;;;;4.63;3.67;;;;;;;;;;5066971;28;20221;-28
2023/01/21 06:15:44;;;;;;;6.20;4.47;;;;;;;;;;5052764;28;20212;-29
2023/01/21 06:18:11;;;;;;;5.23;4.17;;;;;;;;;;5052971;28;20213;-33
2023/01/21 06:20:38;;;;;;;5.20;3.60;;;;;;;;;;5059548;28;20208;-27
2023/01/21 06:23:06;;;;;;;8.37;4.10;;;;;;;;;;5057510;28;20220;-35
2023/01/21 06:25:34;;;;;;;6.57;3.93;;;;;;;;;;5065364;28;20312;-33
2023/01/21 06:28:01;;;;;;;6.70;4.27;;;;;;;;;;5057921;28;20228;-33
2023/01/21 06:30:29;;;;;;;7.23;4.43;;;;;;;;;;5066745;28;20216;-32
2023/01/21 06:32:57;;;;;;;8.70;4.30;;;;;;;;;;5062163;28;20230;-35
2023/01/21 06:35:24;;;;;;;6.33;3.90;;;;;;;;;;5062006;28;20287;-31
2023/01/21 06:37:51;;;;;;;5.53;4.00;;;;;;;;;;5056726;28;20206;-37
2023/01/21 06:40:18;;;;;;;5.93;4.40;;;;;;;;;;5062457;28;20202;-31
2023/01/21 06:42:46;;;;;;;5.63;4.27;;;;;;;;;;5068501;28;20216;-33
2023/01/21 06:45:13;;;;;;;5.27;4.23;;;;;;;;;;5057836;28;20571;-31
2023/01/21 06:47:42;;;;;;;4.80;3.80;;;;;;;;;;5064170;28;20221;-35
2023/01/21 06:50:10;;;;;;;5.87;4.17;;;;;;;;;;5060614;28;20205;-33
2023/01/21 06:52:37;;;;;;;5.93;4.57;;;;;;;;;;5061881;28;20205;-36
2023/01/21 06:55:05;;;;;;;6.60;4.57;;;;;;;;;;5064154;28;20212;-33
2023/01/21 06:57:32;;;;;;;5.80;4.50;;;;;;;;;;5059348;28;20202;-38
2023/01/21 06:59:59;;;;;;;5.40;4.30;;;;;;;;;;5057965;28;20205;-36
2023/01/21 07:02:26;;;;;;;5.27;3.93;;;;;;;;;;5070768;28;20221;-34
2023/01/21 07:04:55;;;;;;;6.20;4.20;;;;;;;;;;5067610;28;20202;-33
2023/01/21 07:07:22;;;;;;;6.57;4.50;;;;;;;;;;5056068;28;20225;-30
2023/01/21 07:09:54;;;;;;;6.93;3.87;;;;;;;;;;5068223;28;20206;-32
2023/01/21 07:12:21;;;;;;;7.57;4.13;;;;;;;;;;5066678;28;20217;-33
2023/01/21 07:14:48;;;;;;;6.17;3.77;;;;;;;;;;5054303;28;20226;-34
2023/01/21 07:17:16;;;;;;;5.50;4.10;;;;;;;;;;5071040;28;20202;-35
2023/01/21 07:19:43;;;;;;;6.37;3.97;;;;;;;;;;5074930;28;20213;-31
2023/01/21 07:22:11;;;;;;;5.93;4.37;;;;;;;;;;5075047;28;20202;-33
2023/01/21 07:24:39;;;;;;;6.87;4.40;;;;;;;;;;5070865;28;20221;-39
2023/01/21 07:27:06;;;;;;;6.63;4.60;;;;;;;;;;5075540;28;20208;-35
2023/01/21 07:29:33;;;;;;;8.43;5.10;;;;;;;;;;5067008;28;20202;-32
2023/01/21 07:32:00;;;;;;;8.53;4.80;;;;;;;;;;5068245;28;20223;-32
2023/01/21 07:34:33;;;;;;;6.53;4.53;;;;;;;;;;5073752;28;20233;-33
2023/01/21 07:37:00;;;;;;;8.83;4.20;;;;;;;;;;5073241;28;20213;-40
2023/01/21 07:39:29;;;;;;;5.67;4.20;;;;;;;;;;5068578;28;20233;-32
2023/01/21 07:41:56;;;;;;;5.10;4.03;;;;;;;;;;5065535;28;20197;-30
2023/01/21 07:44:23;;;;;;;7.53;4.80;;;;;;;;;;5061444;28;20224;-31
2023/01/21 07:46:50;;;;;;;7.63;5.00;;;;;;;;;;5059117;28;20202;-35
2023/01/21 07:49:19;;;;;;;5.47;4.00;;;;;;;;;;5074953;28;20320;-34
2023/01/21 07:51:46;;;;;;;7.27;5.30;;;;;;;;;;5075307;28;20213;-33
2023/01/21 07:54:14;;;;;;;9.07;5.57;;;;;;;;;;5066628;28;20256;-31
2023/01/21 07:56:42;;;;;;;9.30;6.47;;;;;;;;;;5073928;28;20206;-30
2023/01/21 07:59:12;;;;;;;9.30;5.43;;;;;;;;;;5066420;28;20600;-30
2023/01/21 08:01:41;;;;;;;7.23;4.83;;;;;;;;;;5058927;28;20297;-32
2023/01/21 08:04:14;;;;;;;8.57;5.37;;;;;;;;;;5071810;28;20265;-31
2023/01/21 08:06:41;;;;;;;9.10;6.17;;;;;;;;;;5051394;28;20213;-36
2023/01/21 08:09:10;;;;;;;11.03;6.50;;;;;;;;;;5069577;28;20232;-30
2023/01/21 08:11:37;;;;;;;9.07;5.50;;;;;;;;;;5073503;28;20556;-31
2023/01/21 08:14:06;;;;;;;9.37;5.77;;;;;;;;;;5067151;28;20312;-29
2023/01/21 08:16:33;;;;;;;7.97;5.67;;;;;;;;;;5056919;28;20210;-34
2023/01/21 08:19:00;;;;;;;8.30;5.50;;;;;;;;;;5072939;28;20632;-33
2023/01/21 08:21:27;;;;;;;10.47;6.30;;;;;;;;;;5073481;28;20219;-31
2023/01/21 08:23:54;;;;;;;9.87;6.37;;;;;;;;;;5066144;28;20225;-34
2023/01/21 08:26:32;;;;;;;10.90;6.20;;;;;;;;;;5069635;28;20197;-34
2023/01/21 08:28:59;;;;;;;12.10;6.10;;;;;;;;;;5056221;28;20300;-29
2023/01/21 08:31:30;;;;;;;13.40;6.63;;;;;;;;;;5070206;28;20209;-38
2023/01/21 08:33:58;;;;;;;8.07;4.83;;;;;;;;;;5072608;28;20278;-28
2023/01/21 08:36:26;;;;;;;10.53;6.67;;;;;;;;;;5072623;28;20201;-33
2023/01/21 08:39:04;;;;;;;9.83;5.83;;;;;;;;;;5061957;28;20649;-36
2023/01/21 08:41:31;;;;;;;9.37;6.00;;;;;;;;;;5070327;28;20284;-34
2023/01/21 08:43:59;;;;;;;11.53;7.20;;;;;;;;;;5066045;28;20232;-33
2023/01/21 08:46:26;;;;;;;9.97;7.17;;;;;;;;;;5066630;28;20201;-29
2023/01/21 08:48:54;;;;;;;9.97;6.23;;;;;;;;;;5071193;28;20225;-30
2023/01/21 08:51:22;;;;;;;12.23;6.27;;;;;;;;;;5069146;28;20233;-33
2023/01/21 08:53:49;;;;;;;12.63;7.23;;;;;;;;;;5050749;28;20225;-31
2023/01/21 08:56:17;;;;;;;11.03;6.87;;;;;;;;;;5064657;28;20263;-36
2023/01/21 08:58:44;;;;;;;12.07;8.13;;;;;;;;;;5051164;28;20209;-32
2023/01/21 09:01:12;;;;;;;12.10;7.43;;;;;;;;;;5053681;28;20206;-33
2023/01/21 09:03:39;;;;;;;13.63;8.30;;;;;;;;;;5063363;28;20241;-34
2023/01/21 09:06:08;;;;;;;13.03;6.90;;;;;;;;;;5072342;28;20721;-29
2023/01/21 09:08:36;;;;;;;10.80;7.57;;;;;;;;;;5063728;28;20232;-30
2023/01/21 09:11:04;;;;;;;12.87;7.87;;;;;;;;;;5066448;28;20597;-32
2023/01/21 09:13:32;;;;;;;19.60;7.77;;;;;;;;;;5063924;28;20229;-32
2023/01/21 09:15:59;;;;;;;12.30;7.63;;;;;;;;;;5059705;28;20668;-31
2023/01/21 09:18:26;;;;;;;13.67;7.83;;;;;;;;;;5070858;28;20656;-28
2023/01/21 09:20:53;;;;;;;12.87;7.10;;;;;;;;;;5067909;28;20203;-30
2023/01/21 09:23:25;;;;;;;12.80;7.70;;;;;;;;;;5063180;28;20228;-34
2023/01/21 09:25:52;;;;;;;11.37;7.70;;;;;;;;;;5056443;28;20194;-30
2023/01/21 09:28:20;;;;;;;11.97;8.00;;;;;;;;;;5068543;28;20228;-28
2023/01/21 09:30:47;;;;;;;12.23;7.63;;;;;;;;;;5065448;28;20686;-29
2023/01/21 09:33:14;;;;;;;11.93;6.80;;;;;;;;;;5066888;28;20631;-26
2023/01/21 09:35:41;;;;;;;12.77;8.40;;;;;;;;;;5072809;28;20220;-27
2023/01/21 09:38:09;;;;;;;13.70;8.23;;;;;;;;;;5066023;28;20202;-31
2023/01/21 09:40:37;;;;;;;13.90;7.97;;;;;;;;;;5060135;28;20206;-36
2023/01/21 09:43:12;;;;;;;13.07;8.17;;;;;;;;;;5072350;28;20575;-28
2023/01/21 09:45:39;;;;;;;14.03;7.20;;;;;;;;;;5060430;28;20205;-34
2023/01/21 09:48:16;;;;;;;13.77;8.13;;;;;;;;;;5071609;28;20225;-32
2023/01/21 09:50:45;;;;;;;13.23;8.00;;;;;;;;;;5071880;28;20240;-30
2023/01/21 09:53:21;;;;;;;13.83;7.87;;;;;;;;;;5072686;28;20225;-30
2023/01/21 09:55:51;;;;;;;15.20;8.33;;;;;;;;;;5054350;28;20212;-30
2023/01/21 09:58:23;;;;;;;13.63;7.13;;;;;;;;;;5057812;28;20903;-33
2023/01/21 10:00:53;;;;;;;15.43;8.47;;;;;;;;;;5059644;28;20226;-32
2023/01/21 10:03:24;;;;;;;12.00;7.20;;;;;;;;;;5071627;28;20278;-29
2023/01/21 10:06:03;;;;;;;15.03;9.03;;;;;;;;;;5076744;28;20200;-32
2023/01/21 10:08:34;;;;;;;13.97;8.10;;;;;;;;;;5059229;28;20217;-34
2023/01/21 10:11:08;;;;;;;13.27;8.47;;;;;;;;;;5066737;28;20209;-34
2023/01/21 10:13:43;;;;;;;14.43;8.20;;;;;;;;;;5072424;28;20227;-27
2023/01/21 10:16:14;;;;;;;12.10;8.23;;;;;;;;;;5057688;28;20201;-30
2023/01/21 10:18:44;;;;;;;15.63;8.47;;;;;;;;;;5073966;28;20212;-32
2023/01/21 10:21:14;;;;;;;19.00;9.47;;;;;;;;;;5061857;28;20213;-29
2023/01/21 10:23:43;;;;;;;14.13;8.93;;;;;;;;;;5064254;28;21107;-30
2023/01/21 10:26:12;;;;;;;15.47;9.63;;;;;;;;;;5077029;28;20247;-34
2023/01/21 10:28:41;;;;;;;18.67;9.93;;;;;;;;;;5067052;28;20226;-31
2023/01/21 10:31:14;;;;;;;14.03;8.20;;;;;;;;;;5070060;28;20208;-30
2023/01/21 10:41:46;;;;;;;21.03;11.47;;;;;;;;;;5048684;28;20253;-33
2023/01/21 10:44:19;;;;;;;20.23;11.77;;;;;;;;;;5045545;28;20229;-36
2023/01/21 10:46:49;;;;;;;17.50;9.97;;;;;;;;;;5055102;28;20201;-36
2023/01/21 10:49:23;;;;;;;17.73;11.40;;;;;;;;;;5055863;28;20221;-40
2023/01/21 10:51:53;;;;;;;23.17;11.97;;;;;;;;;;5060586;28;20671;-30
2023/01/21 10:54:23;;;;;;;21.23;11.30;;;;;;;;;;5051830;28;20222;-37
2023/01/21 10:56:53;;;;;;;21.00;12.13;;;;;;;;;;5044711;28;20202;-33
2023/01/21 10:59:23;;;;;;;24.63;13.07;;;;;;;;;;5045857;28;20290;-31
2023/01/21 11:01:51;;;;;;;20.47;12.93;;;;;;;;;;5046719;28;20208;-30
2023/01/21 11:04:20;;;;;;;19.57;12.50;;;;;;;;;;5053538;28;20222;-30
2023/01/21 11:06:52;;;;;;;19.60;12.50;;;;;;;;;;5057267;28;20205;-35
2023/01/21 11:09:19;;;;;;;24.73;14.20;;;;;;;;;;5040265;28;20227;-31
2023/01/21 11:11:46;;;;;;;22.67;13.00;;;;;;;;;;5052281;28;20194;-35
2023/01/21 11:14:13;;;;;;;23.30;13.47;;;;;;;;;;5045870;28;20229;-30
2023/01/21 11:16:44;;;;;;;26.50;13.50;;;;;;;;;;5049305;28;20667;-33
2023/01/21 11:19:15;;;;;;;21.30;11.20;;;;;;;;;;5053987;28;20189;-36
2023/01/21 11:21:57;;;;;;;17.40;10.23;;;;;;;;;;5047459;28;20288;-36
2023/01/21 11:24:25;;;;;;;20.30;11.67;;;;;;;;;;5043651;28;20236;-36
2023/01/21 11:27:04;;;;;;;23.40;11.37;;;;;;;;;;5053673;28;20213;-33
2023/01/21 11:29:39;;;;;;;16.73;10.23;;;;;;;;;;5044897;28;20240;-29
2023/01/21 11:32:18;;;;;;;23.87;12.73;;;;;;;;;;5043923;28;20197;-33
2023/01/21 11:35:10;;;;;;;21.00;11.40;;;;;;;;;;5054817;28;20232;-29
2023/01/21 11:37:38;;;;;;;19.13;10.33;;;;;;;;;;5065539;28;20201;-31
2023/01/21 11:40:07;;;;;;;22.90;10.70;;;;;;;;;;5046441;28;20209;-31
2023/01/21 11:42:46;;;;;;;17.90;10.30;;;;;;;;;;5052489;28;20206;-34
2023/01/21 11:45:26;;;;;;;17.63;10.43;;;;;;;;;;5047743;28;20328;-30
2023/01/21 11:47:55;;;;;;;24.10;12.67;;;;;;;;;;5047264;28;20202;-36
2023/01/21 11:50:24;;;;;;;23.53;11.93;;;;;;;;;;5054622;28;20221;-37
2023/01/21 11:53:10;;;;;;;17.67;10.97;;;;;;;;;;5049375;28;20221;-33
2023/01/21 11:55:40;;;;;;;18.03;10.60;;;;;;;;;;5054133;28;20213;-30
2023/01/21 11:58:07;;;;;;;20.07;11.70;;;;;;;;;;5060050;28;20660;-35
2023/01/21 12:00:35;;;;;;;20.37;11.23;;;;;;;;;;5045861;28;20206;-36
2023/01/21 12:03:05;;;;;;;20.63;10.77;;;;;;;;;;5047839;28;20214;-33
2023/01/21 12:05:34;;;;;;;17.97;10.03;;;;;;;;;;5045338;28;20215;-33
2023/01/21 12:08:02;;;;;;;19.33;11.30;;;;;;;;;;5054496;28;20266;-31
2023/01/21 12:10:44;;;;;;;25.13;12.60;;;;;;;;;;5045213;28;20589;-33
2023/01/21 12:13:19;;;;;;;20.93;11.40;;;;;;;;;;5053435;28;20222;-30
2023/01/21 12:15:56;;;;;;;21.03;11.83;;;;;;;;;;5036086;28;20205;-36
2023/01/21 12:18:31;;;;;;;22.43;12.70;;;;;;;;;;5051133;28;20268;-29
2023/01/21 12:21:02;;;;;;;20.77;12.23;;;;;;;;;;5050140;28;20459;-38
2023/01/21 12:23:36;;;;;;;24.10;12.50;;;;;;;;;;5027169;28;20231;-28
2023/01/21 12:26:06;;;;;;;21.67;11.67;;;;;;;;;;5032226;28;20203;-34
2023/01/21 12:28:48;;;;;;;19.90;11.37;;;;;;;;;;5032499;28;20211;-37
2023/01/21 12:31:22;;;;;;;19.07;10.80;;;;;;;;;;5036267;28;20678;-36
2023/01/21 12:33:54;;;;;;;23.07;10.53;;;;;;;;;;5045475;28;20222;-31
2023/01/21 12:36:23;;;;;;;21.07;11.10;;;;;;;;;;5052712;28;20202;-32
2023/01/21 12:38:53;;;;;;;22.43;11.77;;;;;;;;;;5045989;28;20202;-35
2023/01/21 12:41:23;;;;;;;22.47;13.37;;;;;;;;;;5045085;28;20250;-33
2023/01/21 12:43:53;;;;;;;24.57;13.03;;;;;;;;;;5042385;28;20226;-30
2023/01/21 12:46:23;;;;;;;22.00;12.23;;;;;;;;;;5049951;28;20206;-30
2023/01/21 12:48:55;;;;;;;23.80;11.53;;;;;;;;;;5049566;28;20282;-32
2023/01/21 12:51:24;;;;;;;18.67;9.93;;;;;;;;;;5039033;28;20210;-38
2023/01/21 12:53:53;;;;;;;18.07;11.33;;;;;;;;;;5043493;28;20857;-33
2023/01/21 12:56:24;;;;;;;16.27;9.53;;;;;;;;;;5051034;28;20198;-38
2023/01/21 12:58:53;;;;;;;19.17;10.23;;;;;;;;;;5029496;28;20202;-33
2023/01/21 13:01:23;;;;;;;19.90;11.00;;;;;;;;;;5049310;28;20613;-36
2023/01/21 13:03:58;;;;;;;14.97;8.70;;;;;;;;;;5045189;28;20229;-30
2023/01/21 13:06:31;;;;;;;19.37;10.43;;;;;;;;;;5053655;28;20197;-35
2023/01/21 13:09:01;;;;;;;14.77;9.23;;;;;;;;;;5046174;28;20306;-35
2023/01/21 13:11:29;;;;;;;15.27;7.97;;;;;;;;;;5046478;28;20210;-32
2023/01/21 13:14:00;;;;;;;18.57;10.03;;;;;;;;;;5047527;28;20586;-35
2023/01/21 13:16:28;;;;;;;16.80;8.83;;;;;;;;;;5044434;28;20208;-36
2023/01/21 13:18:56;;;;;;;14.17;7.53;;;;;;;;;;5053924;28;20202;-35
2023/01/21 13:21:30;;;;;;;14.30;7.60;;;;;;;;;;5040005;28;20206;-34
2023/01/21 13:24:00;;;;;;;12.53;7.17;;;;;;;;;;5038585;28;20551;-34
2023/01/21 13:26:32;;;;;;;12.67;6.73;;;;;;;;;;5051213;28;20684;-32
2023/01/21 13:29:03;;;;;;;10.60;6.57;;;;;;;;;;5049469;28;20211;-35
2023/01/21 13:31:32;;;;;;;13.57;7.60;;;;;;;;;;5045393;28;20211;-34
2023/01/21 13:34:05;;;;;;;10.80;7.27;;;;;;;;;;5045943;28;20225;-35
2023/01/21 13:36:52;;;;;;;13.93;7.43;;;;;;;;;;5057111;28;20216;-36
2023/01/21 13:39:23;;;;;;;11.00;6.50;;;;;;;;;;5050193;28;20216;-33
2023/01/21 13:41:57;;;;;;;7.60;4.63;;;;;;;;;;5037096;28;20902;-31
2023/01/21 13:44:41;;;;;;;12.97;6.53;;;;;;;;;;5042513;28;20222;-31
2023/01/21 13:47:12;;;;;;;9.43;4.97;;;;;;;;;;5045820;28;20567;-31
2023/01/21 13:49:48;;;;;;;10.40;6.47;;;;;;;;;;5046478;28;20233;-36
2023/01/21 13:52:18;;;;;;;10.43;5.97;;;;;;;;;;5052117;28;20233;-33
2023/01/21 13:54:59;;;;;;;13.50;5.70;;;;;;;;;;5052644;28;20229;-32
2023/01/21 13:57:43;;;;;;;10.23;6.57;;;;;;;;;;5040400;28;20220;-34
2023/01/21 14:00:14;;;;;;;6.93;3.70;;;;;;;;;;5040408;28;20206;-32
2023/01/21 14:02:46;;;;;;;8.67;4.93;;;;;;;;;;5049823;28;20212;-36
2023/01/21 14:05:17;;;;;;;8.87;5.57;;;;;;;;;;5050562;28;20217;-34
2023/01/21 14:07:45;;;;;;;10.03;6.17;;;;;;;;;;5039201;28;20202;-36
2023/01/21 14:10:16;;;;;;;13.40;6.73;;;;;;;;;;5036904;28;20233;-30
2023/01/21 14:12:58;;;;;;;9.63;6.13;;;;;;;;;;5045603;28;20205;-35
2023/01/21 14:15:33;;;;;;;12.07;6.83;;;;;;;;;;5038998;28;20199;-31
2023/01/21 14:18:07;;;;;;;11.40;7.10;;;;;;;;;;5045450;28;20292;-30
2023/01/21 14:20:49;;;;;;;11.10;7.10;;;;;;;;;;5053307;28;20663;-33
2023/01/21 14:23:22;;;;;;;12.13;6.53;;;;;;;;;;5072285;28;20241;-32
2023/01/21 14:26:00;;;;;;;15.27;7.03;;;;;;;;;;5043232;28;20203;-31
2023/01/21 14:28:31;;;;;;;10.93;6.87;;;;;;;;;;5047027;28;20203;-30
2023/01/21 14:31:01;;;;;;;7.70;4.93;;;;;;;;;;5027222;28;20220;-32
2023/01/21 14:33:30;;;;;;;13.70;7.67;;;;;;;;;;5051122;28;20253;-28
2023/01/21 14:36:05;;;;;;;13.23;7.43;;;;;;;;;;5052247;28;20201;-36
2023/01/21 14:38:35;;;;;;;10.10;6.40;;;;;;;;;;5051766;28;20501;-34
2023/01/21 14:41:08;;;;;;;9.97;6.07;;;;;;;;;;5053717;28;20629;-33
2023/01/21 14:43:49;;;;;;;10.33;6.53;;;;;;;;;;5035519;28;20234;-35
2023/01/21 14:46:31;;;;;;;11.67;6.70;;;;;;;;;;5041449;28;20214;-37
2023/01/21 14:49:00;;;;;;;10.80;6.30;;;;;;;;;;5046641;28;20678;-34
2023/01/21 14:51:30;;;;;;;11.90;7.80;;;;;;;;;;5056108;28;20233;-33
2023/01/21 14:54:00;;;;;;;13.23;7.67;;;;;;;;;;5045246;28;20668;-30
2023/01/21 14:56:30;;;;;;;11.80;7.00;;;;;;;;;;5055102;28;20199;-33
2023/01/21 14:58:59;;;;;;;11.10;7.00;;;;;;;;;;5045123;28;20571;-31